Time;durP1;ratioP1;P1;durP2;ratioP2;P2;SDS_P1;SDS_P2;PMS_P1;PMS_P2;Temp;Humidity;BMP_temperature;BMP_pressure;BME280_temperature;BME280_humidity;BME280_pressure;Samples;Min_cycle;Max_cycle;Signal;HPM_P1;HPM_P2
2023/09/26 00:02:46;;;;;;;27.00;16.48;;;15.60;99.90;;;;;;5072707;28;20034;-68
2023/09/26 00:05:12;;;;;;;27.08;16.40;;;15.60;99.90;;;;;;5076694;28;20133;-68
2023/09/26 00:07:38;;;;;;;27.95;17.80;;;15.50;99.90;;;;;;5075832;28;20074;-70
2023/09/26 00:10:05;;;;;;;30.08;18.55;;;15.50;99.90;;;;;;5070863;28;20040;-70
2023/09/26 00:12:31;;;;;;;30.13;19.25;;;15.50;99.90;;;;;;5078472;28;20064;-69
2023/09/26 00:14:57;;;;;;;30.58;20.67;;;15.50;99.90;;;;;;5077433;28;20056;-69
2023/09/26 00:17:23;;;;;;;31.25;20.83;;;15.50;99.90;;;;;;5078157;28;20024;-68
2023/09/26 00:19:49;;;;;;;31.15;20.70;;;15.50;99.90;;;;;;5075868;28;20024;-70
2023/09/26 00:22:14;;;;;;;34.63;22.83;;;15.50;99.90;;;;;;5076826;28;20380;-68
2023/09/26 00:24:40;;;;;;;30.45;21.05;;;15.50;99.90;;;;;;5074101;28;20032;-68
2023/09/26 00:27:05;;;;;;;32.10;20.70;;;15.50;99.90;;;;;;5073230;28;20028;-67
2023/09/26 00:29:33;;;;;;;29.02;18.85;;;15.40;99.90;;;;;;5073141;28;20453;-68
2023/09/26 00:31:59;;;;;;;35.72;21.60;;;15.40;99.90;;;;;;5073372;28;20028;-68
2023/09/26 00:34:28;;;;;;;39.30;24.40;;;15.40;99.90;;;;;;5073274;28;20406;-68
2023/09/26 00:36:54;;;;;;;38.75;25.08;;;15.30;99.90;;;;;;5073386;28;20051;-69
2023/09/26 00:39:21;;;;;;;39.65;25.15;;;15.40;99.90;;;;;;5073211;28;20036;-69
2023/09/26 00:41:46;;;;;;;35.10;23.40;;;15.40;99.90;;;;;;5059688;28;20040;-68
2023/09/26 00:44:12;;;;;;;35.00;24.00;;;15.40;99.90;;;;;;5052718;28;20033;-69
2023/09/26 00:46:39;;;;;;;37.58;24.13;;;15.40;99.90;;;;;;5053078;28;20036;-69
2023/09/26 00:49:06;;;;;;;36.60;23.27;;;15.40;99.90;;;;;;5053003;28;20438;-69
2023/09/26 00:51:32;;;;;;;39.05;24.13;;;15.40;99.90;;;;;;5053204;28;20103;-67
2023/09/26 00:53:58;;;;;;;37.75;24.58;;;15.40;99.90;;;;;;5052911;28;20170;-67
2023/09/26 00:56:24;;;;;;;40.10;25.58;;;15.40;99.90;;;;;;5052801;28;20071;-68
2023/09/26 00:58:51;;;;;;;36.88;25.52;;;15.40;99.90;;;;;;5064272;28;20025;-68
2023/09/26 01:01:19;;;;;;;37.90;25.65;;;15.40;99.90;;;;;;5061802;28;20044;-68
2023/09/26 01:03:45;;;;;;;36.10;24.77;;;15.40;99.90;;;;;;5072710;28;20040;-69
2023/09/26 01:06:11;;;;;;;34.25;25.70;;;15.40;99.90;;;;;;5072707;28;20123;-69
2023/09/26 01:08:37;;;;;;;32.97;23.33;;;15.40;99.90;;;;;;5072721;28;20162;-69
2023/09/26 01:11:03;;;;;;;33.88;23.70;;;15.40;99.90;;;;;;5072458;28;20123;-69
2023/09/26 01:13:28;;;;;;;34.75;24.23;;;15.40;99.90;;;;;;5072710;28;20135;-69
2023/09/26 01:15:54;;;;;;;35.78;24.45;;;15.40;99.90;;;;;;5072684;28;20074;-69
2023/09/26 01:18:23;;;;;;;33.60;23.67;;;15.40;99.90;;;;;;5072684;28;20031;-69
2023/09/26 01:20:49;;;;;;;39.42;25.73;;;15.40;99.90;;;;;;5072389;28;20028;-69
2023/09/26 01:23:16;;;;;;;37.50;25.35;;;15.40;99.90;;;;;;5072408;28;20030;-69
2023/09/26 01:25:42;;;;;;;37.90;25.25;;;15.50;99.90;;;;;;5072583;28;20113;-67
2023/09/26 01:28:10;;;;;;;37.20;26.30;;;15.50;99.90;;;;;;5072547;28;20531;-68
2023/09/26 01:30:37;;;;;;;37.47;25.23;;;15.50;99.90;;;;;;5072437;28;20472;-69
2023/09/26 01:33:05;;;;;;;39.00;26.42;;;15.50;99.90;;;;;;5066383;28;20480;-68
2023/09/26 01:35:31;;;;;;;36.72;24.45;;;15.50;99.90;;;;;;5065019;28;20070;-69
2023/09/26 01:37:57;;;;;;;33.97;25.02;;;15.50;99.90;;;;;;5053639;28;20117;-69
2023/09/26 01:40:23;;;;;;;32.17;24.05;;;15.50;99.90;;;;;;5053191;28;20025;-68
2023/09/26 01:42:48;;;;;;;36.35;24.70;;;15.50;99.90;;;;;;5072365;28;20021;-69
2023/09/26 01:45:14;;;;;;;37.55;25.90;;;15.50;99.90;;;;;;5072314;28;20021;-68
2023/09/26 01:47:48;;;;;;;36.28;26.33;;;15.50;99.90;;;;;;5072439;28;20036;-69
2023/09/26 01:50:18;;;;;;;39.28;25.85;;;15.50;99.90;;;;;;5071217;28;20044;-68
2023/09/26 01:52:44;;;;;;;35.72;26.38;;;15.50;99.90;;;;;;5060470;28;20043;-68
2023/09/26 01:55:17;;;;;;;38.05;26.70;;;15.40;99.90;;;;;;5056795;28;20025;-68
2023/09/26 01:57:42;;;;;;;34.20;25.15;;;15.40;99.90;;;;;;5057300;28;20024;-68
2023/09/26 02:00:11;;;;;;;40.25;26.40;;;15.40;99.90;;;;;;5062504;28;20029;-69
2023/09/26 02:02:44;;;;;;;36.33;26.38;;;15.40;99.90;;;;;;5057142;28;20020;-68
2023/09/26 02:05:12;;;;;;;37.13;27.48;;;15.40;99.90;;;;;;5072044;28;20115;-68
2023/09/26 02:07:38;;;;;;;35.50;26.52;;;15.30;99.90;;;;;;5052094;28;20033;-68
2023/09/26 02:10:04;;;;;;;38.97;26.65;;;15.30;99.90;;;;;;5062353;28;20495;-68
2023/09/26 02:12:35;;;;;;;37.00;26.20;;;15.30;99.90;;;;;;5070783;28;20486;-69
2023/09/26 02:15:03;;;;;;;36.42;26.48;;;15.30;99.90;;;;;;5072087;28;20069;-68
2023/09/26 02:17:29;;;;;;;37.13;26.17;;;15.20;99.90;;;;;;5071867;28;20581;-68
2023/09/26 02:19:55;;;;;;;37.33;25.90;;;15.20;99.90;;;;;;5071837;28;20032;-67
2023/09/26 02:22:21;;;;;;;40.67;28.83;;;15.20;99.90;;;;;;5072473;28;20420;-69
2023/09/26 02:24:51;;;;;;;38.90;28.58;;;15.20;99.90;;;;;;5075798;28;20035;-68
2023/09/26 02:27:17;;;;;;;39.92;28.92;;;15.20;99.90;;;;;;5075764;28;20029;-68
2023/09/26 02:29:44;;;;;;;41.55;28.35;;;15.20;99.90;;;;;;5075310;28;20074;-69
2023/09/26 02:32:10;;;;;;;38.20;27.83;;;15.10;99.90;;;;;;5075436;28;20530;-68
2023/09/26 02:34:35;;;;;;;36.88;27.67;;;15.10;99.90;;;;;;5075515;28;20029;-69
2023/09/26 02:37:01;;;;;;;38.63;28.30;;;15.10;99.90;;;;;;5069515;28;20021;-68
2023/09/26 02:39:27;;;;;;;36.55;28.17;;;15.10;99.90;;;;;;5068623;28;20029;-68
2023/09/26 02:41:52;;;;;;;38.78;29.30;;;15.10;99.90;;;;;;5074191;28;20531;-69
2023/09/26 02:44:18;;;;;;;38.45;29.20;;;15.00;99.90;;;;;;5075461;28;20028;-68
2023/09/26 02:46:43;;;;;;;42.60;31.05;;;15.00;99.90;;;;;;5069852;28;20055;-67
2023/09/26 02:49:09;;;;;;;43.03;30.65;;;15.00;99.90;;;;;;5055187;28;20452;-68
2023/09/26 02:51:34;;;;;;;45.30;31.15;;;15.00;99.90;;;;;;5055441;28;20048;-68
2023/09/26 02:54:00;;;;;;;43.55;31.00;;;15.00;99.90;;;;;;5055222;28;20021;-68
2023/09/26 02:56:25;;;;;;;42.58;32.05;;;15.00;99.90;;;;;;5055350;28;20396;-68
2023/09/26 02:58:51;;;;;;;44.65;32.00;;;15.00;99.90;;;;;;5069390;28;20479;-68
2023/09/26 03:01:18;;;;;;;43.00;31.75;;;15.00;99.90;;;;;;5074936;28;20029;-68
2023/09/26 03:03:44;;;;;;;41.17;31.98;;;15.00;99.90;;;;;;5074977;28;20025;-68
2023/09/26 03:06:10;;;;;;;40.40;32.30;;;15.00;99.90;;;;;;5075002;28;20039;-67
2023/09/26 03:08:35;;;;;;;40.55;30.30;;;15.00;99.90;;;;;;5074696;28;20021;-67
2023/09/26 03:11:01;;;;;;;41.38;29.55;;;15.00;99.90;;;;;;5074964;28;20841;-68
2023/09/26 03:13:33;;;;;;;38.53;28.50;;;15.00;99.90;;;;;;5074970;28;20036;-68
2023/09/26 03:15:58;;;;;;;;;;;15.00;99.90;;;;;;5075173;28;20025;-68
2023/09/26 03:18:26;;;;;;;36.58;25.70;;;15.00;99.90;;;;;;5074689;28;19909;-69
2023/09/26 03:20:54;;;;;;;37.60;27.80;;;14.90;99.90;;;;;;5074777;28;20824;-68
2023/09/26 03:23:21;;;;;;;39.33;28.52;;;14.90;99.90;;;;;;5074761;28;20048;-69
2023/09/26 03:25:46;;;;;;;40.40;30.05;;;14.90;99.90;;;;;;5074817;28;20031;-68
2023/09/26 03:28:12;;;;;;;43.10;33.03;;;14.90;99.90;;;;;;5074708;28;20375;-69
2023/09/26 03:30:42;;;;;;;45.40;33.72;;;14.90;99.90;;;;;;5074202;28;20036;-68
2023/09/26 03:33:07;;;;;;;47.40;33.88;;;14.90;99.90;;;;;;5069796;28;20036;-68
2023/09/26 03:35:33;;;;;;;50.10;35.00;;;14.90;99.90;;;;;;5074603;28;20083;-68
2023/09/26 03:37:59;;;;;;;48.28;33.20;;;14.90;99.90;;;;;;5074284;28;20017;-68
2023/09/26 03:40:24;;;;;;;47.10;37.08;;;14.90;99.90;;;;;;5074462;28;20021;-69
2023/09/26 03:42:50;;;;;;;46.88;35.53;;;14.90;99.90;;;;;;5074442;28;20103;-68
2023/09/26 03:45:15;;;;;;;41.95;31.73;;;14.80;99.90;;;;;;5073986;28;20036;-68
2023/09/26 03:47:41;;;;;;;36.83;27.88;;;14.80;99.90;;;;;;5074400;28;20089;-68
2023/09/26 03:50:08;;;;;;;37.97;26.55;;;14.80;99.90;;;;;;5069555;28;20060;-67
2023/09/26 03:52:33;;;;;;;37.97;28.23;;;14.80;99.90;;;;;;5074130;28;20035;-69
2023/09/26 03:54:59;;;;;;;35.03;26.20;;;14.70;99.90;;;;;;5074202;28;20096;-68
2023/09/26 03:57:24;;;;;;;35.90;25.20;;;14.70;99.90;;;;;;5074033;28;20059;-69
2023/09/26 03:59:50;;;;;;;39.65;29.58;;;14.60;99.90;;;;;;5074025;28;20032;-68
2023/09/26 04:02:16;;;;;;;45.95;33.40;;;14.60;99.90;;;;;;5074093;28;20029;-68
2023/09/26 04:04:41;;;;;;;46.33;35.50;;;14.50;99.90;;;;;;5074130;28;20031;-68
2023/09/26 04:07:07;;;;;;;48.25;35.13;;;14.50;99.90;;;;;;5073983;28;20485;-68
2023/09/26 04:09:34;;;;;;;46.03;36.50;;;14.50;99.90;;;;;;5073966;28;20039;-69
2023/09/26 04:12:01;;;;;;;45.75;31.83;;;14.50;99.90;;;;;;5075075;28;20109;-69
2023/09/26 04:14:27;;;;;;;46.38;35.45;;;14.40;99.90;;;;;;5073496;28;20519;-69
2023/09/26 04:16:53;;;;;;;43.97;33.20;;;14.40;99.90;;;;;;5073979;28;20059;-69
2023/09/26 04:19:18;;;;;;;44.17;32.78;;;14.40;99.90;;;;;;5073727;28;20082;-69
2023/09/26 04:21:44;;;;;;;46.60;35.22;;;14.40;99.90;;;;;;5073476;28;20140;-68
2023/09/26 04:24:10;;;;;;;50.55;39.15;;;14.30;99.90;;;;;;5073641;28;20125;-69
2023/09/26 04:26:36;;;;;;;48.47;39.13;;;14.30;99.90;;;;;;5073724;28;20384;-69
2023/09/26 04:29:01;;;;;;;45.97;35.83;;;14.30;99.90;;;;;;5073380;28;20027;-67
2023/09/26 04:31:27;;;;;;;46.83;36.45;;;14.30;99.90;;;;;;5073538;28;20033;-68
2023/09/26 04:33:53;;;;;;;48.22;38.40;;;14.30;99.90;;;;;;5073236;28;20028;-68
2023/09/26 04:36:18;;;;;;;51.95;38.97;;;14.30;99.90;;;;;;5068705;28;20036;-68
2023/09/26 04:38:45;;;;;;;49.17;36.58;;;14.30;99.90;;;;;;5073347;28;20024;-68
2023/09/26 04:41:13;;;;;;;46.13;33.40;;;14.30;99.90;;;;;;5073705;28;20048;-68
2023/09/26 04:43:38;;;;;;;47.38;33.55;;;14.30;99.90;;;;;;5073259;28;20036;-69
2023/09/26 04:46:15;;;;;;;42.65;33.03;;;14.30;99.90;;;;;;5072916;28;20087;-69
2023/09/26 04:48:42;;;;;;;39.72;29.92;;;14.30;99.90;;;;;;5073220;28;20032;-69
2023/09/26 04:51:08;;;;;;;38.03;29.08;;;14.30;99.90;;;;;;5072823;28;20052;-68
2023/09/26 04:53:35;;;;;;;44.10;33.95;;;14.30;99.90;;;;;;5072895;28;20047;-68
2023/09/26 04:56:04;;;;;;;53.85;39.78;;;14.30;99.90;;;;;;5073148;28;20029;-69
2023/09/26 04:58:30;;;;;;;51.45;37.17;;;14.30;99.90;;;;;;5072838;28;20159;-68
2023/09/26 05:00:57;;;;;;;52.90;40.92;;;14.30;99.90;;;;;;5072876;28;20028;-68
2023/09/26 05:03:23;;;;;;;49.38;37.97;;;14.40;99.90;;;;;;5072759;28;20487;-68
2023/09/26 05:05:49;;;;;;;48.53;40.05;;;14.40;99.90;;;;;;5073029;28;20036;-69
2023/09/26 05:08:14;;;;;;;46.25;38.05;;;14.40;99.90;;;;;;5072920;28;20384;-68
2023/09/26 05:10:41;;;;;;;45.03;37.17;;;14.40;99.90;;;;;;5072550;28;20032;-68
2023/09/26 05:13:07;;;;;;;46.17;36.25;;;14.50;99.90;;;;;;5072889;28;20068;-68
2023/09/26 05:15:35;;;;;;;44.67;35.00;;;14.50;99.90;;;;;;5072940;28;20113;-68
2023/09/26 05:18:01;;;;;;;50.55;40.15;;;14.50;99.90;;;;;;5072900;28;20158;-68
2023/09/26 05:20:27;;;;;;;55.38;43.05;;;14.50;99.90;;;;;;5072848;28;20119;-67
2023/09/26 05:22:52;;;;;;;52.55;41.40;;;14.50;99.90;;;;;;5072431;28;20099;-67
2023/09/26 05:25:18;;;;;;;54.15;43.63;;;14.50;99.90;;;;;;5072292;28;20033;-67
2023/09/26 05:27:44;;;;;;;53.13;44.05;;;14.60;99.90;;;;;;5072686;28;20025;-68
2023/09/26 05:30:12;;;;;;;51.67;43.33;;;14.60;99.90;;;;;;5072542;28;20044;-68
2023/09/26 05:32:39;;;;;;;54.30;43.70;;;14.70;99.90;;;;;;5059021;28;20060;-67
2023/09/26 05:35:06;;;;;;;46.65;41.50;;;14.70;99.90;;;;;;5056508;28;20032;-69
2023/09/26 05:37:35;;;;;;;46.75;40.10;;;14.70;99.90;;;;;;5072391;28;20029;-68
2023/09/26 05:40:03;;;;;;;46.20;38.60;;;14.70;99.90;;;;;;5058954;28;20037;-68
2023/09/26 05:42:29;;;;;;;43.53;37.80;;;14.70;99.90;;;;;;5072208;28;20081;-68
2023/09/26 05:44:55;;;;;;;46.05;38.42;;;14.80;99.90;;;;;;5072350;28;20024;-68
2023/09/26 05:47:21;;;;;;;41.20;35.38;;;14.80;99.90;;;;;;5072212;28;20042;-68
2023/09/26 05:49:50;;;;;;;39.75;34.72;;;14.80;99.90;;;;;;5070399;28;20053;-68
2023/09/26 05:52:16;;;;;;;38.63;33.60;;;14.80;99.90;;;;;;5069948;28;20055;-68
2023/09/26 05:54:41;;;;;;;37.80;32.15;;;14.80;99.90;;;;;;5070651;28;20469;-68
2023/09/26 05:57:07;;;;;;;35.13;30.35;;;14.80;99.90;;;;;;5071259;28;20107;-68
2023/09/26 05:59:33;;;;;;;38.88;30.35;;;14.80;99.90;;;;;;5074531;28;20380;-68
2023/09/26 06:01:58;;;;;;;35.40;31.52;;;14.70;99.90;;;;;;5075295;28;20028;-68
2023/09/26 06:04:24;;;;;;;38.10;31.35;;;14.70;99.90;;;;;;5074726;28;20048;-68
2023/09/26 06:06:49;;;;;;;36.28;31.67;;;14.80;99.90;;;;;;5075053;28;20522;-68
2023/09/26 06:09:15;;;;;;;35.88;31.48;;;14.80;99.90;;;;;;5074632;28;20447;-68
2023/09/26 06:11:40;;;;;;;37.00;30.85;;;14.80;99.90;;;;;;5074641;28;20120;-68
2023/09/26 06:14:06;;;;;;;34.88;29.63;;;14.80;99.90;;;;;;5074554;28;20119;-68
2023/09/26 06:16:31;;;;;;;35.75;31.30;;;14.90;99.90;;;;;;5074403;28;20103;-68
2023/09/26 06:18:57;;;;;;;33.95;28.98;;;14.90;99.90;;;;;;5074442;28;20024;-69
2023/09/26 06:21:23;;;;;;;33.90;29.05;;;15.00;99.90;;;;;;5074462;28;20445;-68
2023/09/26 06:23:48;;;;;;;33.67;28.67;;;15.00;99.90;;;;;;5074124;28;20029;-68
2023/09/26 06:26:14;;;;;;;34.10;28.92;;;15.00;99.90;;;;;;5074493;28;20469;-68
2023/09/26 06:28:40;;;;;;;35.72;28.95;;;15.10;99.90;;;;;;5074605;28;20025;-68
2023/09/26 06:31:07;;;;;;;32.00;27.48;;;15.10;99.90;;;;;;5074681;28;20123;-68
2023/09/26 06:33:32;;;;;;;32.20;28.08;;;15.10;99.90;;;;;;5074423;28;20119;-68
2023/09/26 06:35:58;;;;;;;35.45;28.52;;;15.20;99.90;;;;;;5074403;28;20132;-68
2023/09/26 06:38:24;;;;;;;31.17;26.58;;;15.20;99.90;;;;;;5073961;28;20028;-68
2023/09/26 06:41:04;;;;;;;32.60;28.20;;;15.30;99.90;;;;;;5074247;28;20062;-68
2023/09/26 06:43:30;;;;;;;34.63;28.05;;;15.40;99.90;;;;;;5074193;28;20040;-67
2023/09/26 06:45:55;;;;;;;32.25;28.48;;;15.40;99.90;;;;;;5074215;28;20131;-68
2023/09/26 06:48:21;;;;;;;34.00;27.92;;;15.50;99.90;;;;;;5074092;28;20032;-67
2023/09/26 06:50:47;;;;;;;31.52;27.13;;;15.50;99.90;;;;;;5032453;28;1197370;-67
2023/09/26 06:53:12;;;;;;;32.13;27.02;;;15.60;99.90;;;;;;5075140;28;20107;-69
2023/09/26 06:55:39;;;;;;;32.30;27.33;;;15.70;99.90;;;;;;5075377;28;20020;-67
2023/09/26 06:58:08;;;;;;;31.65;26.20;;;15.80;99.90;;;;;;5075351;28;20518;-69
2023/09/26 07:00:39;;;;;;;28.92;24.45;;;15.90;99.90;;;;;;5075116;28;20035;-69
2023/09/26 07:03:05;;;;;;;31.45;24.58;;;16.00;99.90;;;;;;5075342;28;20111;-69
2023/09/26 07:05:31;;;;;;;33.95;25.10;;;16.20;99.90;;;;;;5074549;28;20111;-67
2023/09/26 07:07:57;;;;;;;33.95;24.13;;;16.30;99.90;;;;;;5074599;28;20111;-67
2023/09/26 07:10:23;;;;;;;28.15;23.00;;;16.30;99.90;;;;;;5070125;28;20081;-69
2023/09/26 07:12:49;;;;;;;30.02;24.40;;;16.40;99.90;;;;;;5075873;28;20529;-67
2023/09/26 07:15:15;;;;;;;30.23;24.13;;;16.40;99.90;;;;;;5074890;28;20067;-67
2023/09/26 07:17:41;;;;;;;30.45;24.65;;;16.50;99.90;;;;;;5074554;28;20033;-67
2023/09/26 07:20:13;;;;;;;34.60;24.65;;;16.50;99.90;;;;;;5074894;28;20150;-67
2023/09/26 07:22:42;;;;;;;31.70;25.00;;;16.60;99.90;;;;;;5075084;28;20059;-67
2023/09/26 07:25:10;;;;;;;29.73;25.45;;;16.70;99.90;;;;;;5074864;28;20068;-67
2023/09/26 07:27:36;;;;;;;31.33;25.88;;;16.80;99.90;;;;;;5074952;28;20032;-68
2023/09/26 07:30:02;;;;;;;29.65;24.85;;;16.80;99.90;;;;;;5074537;28;20028;-68
2023/09/26 07:32:27;;;;;;;27.85;23.40;;;17.00;99.90;;;;;;5073914;28;20490;-67
2023/09/26 07:34:53;;;;;;;29.95;23.98;;;17.20;99.90;;;;;;5073847;28;20202;-67
2023/09/26 07:37:19;;;;;;;29.65;21.85;;;17.40;99.90;;;;;;5074202;28;20059;-69
2023/09/26 07:39:49;;;;;;;27.15;21.65;;;17.70;99.90;;;;;;5074430;28;20397;-68
2023/09/26 07:42:14;;;;;;;25.50;20.95;;;18.00;99.90;;;;;;5068646;28;20037;-68
2023/09/26 07:44:40;;;;;;;29.48;21.02;;;18.30;99.90;;;;;;5085575;28;20038;-68
2023/09/26 07:47:05;;;;;;;25.40;19.15;;;18.60;99.90;;;;;;5081720;28;20029;-68
2023/09/26 07:49:31;;;;;;;22.83;18.50;;;19.10;99.90;;;;;;5082978;28;20138;-68
2023/09/26 07:51:57;;;;;;;25.40;20.20;;;19.60;99.90;;;;;;5082743;28;20393;-68
2023/09/26 07:54:22;;;;;;;25.17;19.10;;;20.00;99.90;;;;;;5089555;28;20036;-68
2023/09/26 07:56:48;;;;;;;22.73;17.63;;;20.60;99.90;;;;;;5094540;28;20039;-68
2023/09/26 07:59:13;;;;;;;25.38;17.15;;;21.50;99.90;;;;;;5094174;28;20403;-68
2023/09/26 08:01:39;;;;;;;20.83;14.52;;;22.60;99.90;;;;;;5075117;28;20463;-69
2023/09/26 08:04:04;;;;;;;22.13;14.25;;;23.80;99.90;;;;;;5077342;28;20376;-67
2023/09/26 08:06:31;;;;;;;22.58;13.70;;;24.90;99.90;;;;;;5073807;28;20060;-69
2023/09/26 08:08:57;;;;;;;18.73;13.27;;;25.80;99.90;;;;;;5073764;28;20085;-69
2023/09/26 08:11:27;;;;;;;18.85;12.27;;;26.00;99.90;;;;;;5079271;28;20535;-68
2023/09/26 08:13:54;;;;;;;18.63;13.50;;;25.70;99.90;;;;;;5093961;28;20377;-69
2023/09/26 08:16:21;;;;;;;21.52;13.02;;;25.40;99.90;;;;;;5066713;28;20035;-69
2023/09/26 08:18:47;;;;;;;19.02;13.18;;;25.60;99.90;;;;;;5060958;28;20474;-68
2023/09/26 08:21:14;;;;;;;20.35;13.10;;;25.80;99.90;;;;;;5065448;28;20043;-68
2023/09/26 08:23:39;;;;;;;22.05;13.32;;;25.90;99.90;;;;;;5093590;28;20027;-69
2023/09/26 08:26:06;;;;;;;21.08;11.98;;;26.10;99.90;;;;;;5084092;28;20031;-67
2023/09/26 08:28:32;;;;;;;16.65;11.50;;;26.40;99.90;;;;;;5076669;28;20055;-67
2023/09/26 08:31:07;;;;;;;17.65;11.00;;;26.80;99.90;;;;;;5072463;28;20040;-67
2023/09/26 08:33:33;;;;;;;17.75;10.77;;;27.20;99.50;;;;;;5073347;28;20055;-68
2023/09/26 08:35:58;;;;;;;17.13;11.20;;;27.20;99.10;;;;;;5073482;28;20399;-69
2023/09/26 08:38:24;;;;;;;17.90;11.70;;;27.10;99.10;;;;;;5082584;28;20028;-69
2023/09/26 08:40:53;;;;;;;18.92;11.68;;;26.80;99.00;;;;;;5072660;28;20103;-66
2023/09/26 08:43:26;;;;;;;17.65;12.05;;;26.50;99.40;;;;;;5080928;28;20031;-67
2023/09/26 08:45:53;;;;;;;19.05;12.73;;;26.30;99.70;;;;;;5086137;28;20016;-67
2023/09/26 08:48:19;;;;;;;18.48;12.85;;;26.00;99.90;;;;;;5083237;28;20135;-67
2023/09/26 08:50:44;;;;;;;18.45;11.80;;;25.70;99.90;;;;;;5073113;28;20103;-68
2023/09/26 08:53:10;;;;;;;17.13;12.15;;;25.60;99.90;;;;;;5073243;28;20417;-67
2023/09/26 08:55:38;;;;;;;20.55;12.68;;;25.40;99.90;;;;;;5081512;28;20093;-68
2023/09/26 08:58:05;;;;;;;18.42;11.57;;;25.40;99.90;;;;;;5093581;28;20028;-68
2023/09/26 09:00:30;;;;;;;20.95;11.63;;;25.30;99.90;;;;;;5092932;28;20032;-67
2023/09/26 09:02:56;;;;;;;20.38;12.10;;;25.10;99.90;;;;;;5093011;28;20024;-67
2023/09/26 09:05:23;;;;;;;18.35;12.43;;;24.90;99.90;;;;;;5075078;28;20028;-68
2023/09/26 09:07:48;;;;;;;19.13;11.68;;;24.70;99.90;;;;;;5072869;28;20241;-67
2023/09/26 09:10:16;;;;;;;17.73;11.45;;;24.50;99.90;;;;;;5072593;28;20036;-68
2023/09/26 09:12:47;;;;;;;18.15;11.73;;;24.40;99.90;;;;;;5072864;28;20456;-67
2023/09/26 09:15:15;;;;;;;16.85;11.57;;;24.70;99.90;;;;;;5072822;28;20107;-67
2023/09/26 09:17:42;;;;;;;18.15;11.90;;;25.50;99.90;;;;;;5069105;28;20028;-68
2023/09/26 09:20:09;;;;;;;16.90;11.60;;;26.20;99.90;;;;;;5070783;28;20072;-68
2023/09/26 09:22:35;;;;;;;19.90;10.43;;;26.90;99.80;;;;;;5072091;28;20036;-67
2023/09/26 09:25:02;;;;;;;17.35;10.13;;;27.30;98.90;;;;;;5072765;28;20031;-67
2023/09/26 09:27:31;;;;;;;17.45;10.65;;;27.40;98.50;;;;;;5072214;28;20415;-67
2023/09/26 09:30:07;;;;;;;16.05;10.52;;;27.70;98.30;;;;;;5072612;28;20493;-67
2023/09/26 09:32:33;;;;;;;15.60;10.38;;;28.50;97.70;;;;;;5072194;28;20055;-68
2023/09/26 09:34:59;;;;;;;14.95;8.82;;;29.40;97.30;;;;;;5071401;28;20040;-68
2023/09/26 09:37:24;;;;;;;14.32;8.48;;;30.20;95.60;;;;;;5070551;28;20028;-68
2023/09/26 09:39:51;;;;;;;16.70;8.45;;;31.00;94.60;;;;;;5064473;28;20032;-68
2023/09/26 09:42:17;;;;;;;13.77;8.25;;;31.50;93.70;;;;;;5090380;28;20112;-69
2023/09/26 09:44:44;;;;;;;14.23;8.20;;;31.80;94.00;;;;;;5072185;28;20162;-68
2023/09/26 09:47:11;;;;;;;12.07;7.75;;;31.80;93.40;;;;;;5065465;28;20033;-68
2023/09/26 09:49:47;;;;;;;13.93;8.15;;;31.30;93.10;;;;;;5056853;28;20130;-68
2023/09/26 09:52:16;;;;;;;15.40;8.60;;;30.70;93.50;;;;;;5051842;28;20503;-67
2023/09/26 09:54:45;;;;;;;12.02;7.63;;;30.30;94.40;;;;;;5052789;28;20465;-67
2023/09/26 09:57:17;;;;;;;15.52;7.18;;;30.10;94.40;;;;;;5057480;28;20064;-68
2023/09/26 09:59:45;;;;;;;13.63;7.45;;;29.80;93.80;;;;;;5063500;28;20062;-67
2023/09/26 10:02:17;;;;;;;13.63;6.03;;;29.40;94.20;;;;;;5065313;28;20033;-67
2023/09/26 10:04:47;;;;;;;12.85;6.50;;;29.50;93.40;;;;;;5060995;28;20050;-67
2023/09/26 10:07:17;;;;;;;12.18;6.03;;;30.20;93.20;;;;;;5065505;28;20121;-67
2023/09/26 10:09:44;;;;;;;12.57;5.40;;;30.90;93.20;;;;;;5065958;28;20404;-68
2023/09/26 10:12:11;;;;;;;11.32;5.55;;;31.40;92.00;;;;;;5055475;28;20029;-67
2023/09/26 10:14:37;;;;;;;9.82;5.35;;;32.00;91.50;;;;;;5066012;28;21213;-67
2023/09/26 10:17:06;;;;;;;11.00;5.63;;;31.90;91.10;;;;;;5059283;28;20171;-67
2023/09/26 10:19:33;;;;;;;9.32;5.30;;;32.10;91.60;;;;;;5078239;28;20060;-68
2023/09/26 10:22:17;;;;;;;10.45;5.70;;;32.90;90.60;;;;;;5068597;28;20535;-68
2023/09/26 10:24:52;;;;;;;10.45;5.20;;;33.50;89.20;;;;;;5058557;28;20033;-67
2023/09/26 10:27:38;;;;;;;7.28;4.90;;;33.80;87.90;;;;;;5065912;28;20127;-67
2023/09/26 10:30:06;;;;;;;10.25;5.50;;;33.30;88.60;;;;;;5069191;28;20407;-67
2023/09/26 10:32:38;;;;;;;10.48;5.55;;;32.70;88.80;;;;;;5062006;28;20032;-67
2023/09/26 10:35:15;;;;;;;11.05;5.50;;;32.10;90.20;;;;;;5067890;28;20040;-67
2023/09/26 10:37:45;;;;;;;9.52;5.45;;;31.50;90.30;;;;;;5064836;28;20036;-67
2023/09/26 10:40:17;;;;;;;10.88;6.05;;;30.90;90.60;;;;;;5070883;28;20073;-67
2023/09/26 10:42:49;;;;;;;13.10;6.25;;;30.20;91.40;;;;;;5068884;28;20111;-67
2023/09/26 10:45:16;;;;;;;10.32;5.68;;;29.90;91.90;;;;;;5075758;28;20551;-66
2023/09/26 10:47:42;;;;;;;10.85;5.57;;;29.70;92.10;;;;;;5074534;28;20120;-67
2023/09/26 10:50:12;;;;;;;13.38;5.70;;;29.60;92.50;;;;;;5077276;28;20550;-67
2023/09/26 10:52:46;;;;;;;9.90;5.15;;;29.80;92.70;;;;;;5072395;28;20029;-67
2023/09/26 10:55:14;;;;;;;9.85;5.10;;;30.10;92.00;;;;;;5063837;28;20024;-67
2023/09/26 10:57:40;;;;;;;9.68;5.07;;;30.30;91.50;;;;;;5058867;28;20029;-67
2023/09/26 11:00:13;;;;;;;8.10;4.57;;;30.90;91.20;;;;;;5062023;28;20074;-67
2023/09/26 11:02:39;;;;;;;7.30;4.07;;;31.90;90.40;;;;;;5058484;28;20027;-67
2023/09/26 11:05:08;;;;;;;7.85;4.40;;;32.60;90.00;;;;;;5060434;28;20025;-67
2023/09/26 11:07:34;;;;;;;7.30;3.95;;;33.40;88.30;;;;;;5059926;28;20461;-67
2023/09/26 11:10:00;;;;;;;7.03;4.30;;;33.90;87.40;;;;;;5080506;28;20044;-68
2023/09/26 11:12:26;;;;;;;6.93;4.35;;;34.40;86.40;;;;;;5074761;28;20027;-67
2023/09/26 11:14:54;;;;;;;6.57;4.47;;;34.80;86.40;;;;;;5088938;28;20036;-68
2023/09/26 11:17:20;;;;;;;7.03;4.03;;;34.90;85.40;;;;;;5072806;28;20044;-68
2023/09/26 11:19:46;;;;;;;7.43;4.45;;;34.70;84.90;;;;;;5054965;28;20072;-68
2023/09/26 11:22:11;;;;;;;10.00;5.07;;;34.60;85.50;;;;;;5054983;28;20049;-68
2023/09/26 11:24:37;;;;;;;8.65;5.05;;;34.40;85.20;;;;;;5069940;28;20043;-67
2023/09/26 11:27:08;;;;;;;9.10;4.88;;;34.10;85.50;;;;;;5074599;28;20024;-67
2023/09/26 11:29:35;;;;;;;8.88;5.00;;;33.50;85.60;;;;;;5074831;28;20091;-67
2023/09/26 11:32:03;;;;;;;8.52;4.95;;;32.60;86.90;;;;;;5074068;28;20119;-67
2023/09/26 11:34:29;;;;;;;9.23;5.10;;;31.90;88.50;;;;;;5074730;28;20025;-67
2023/09/26 11:36:55;;;;;;;9.05;4.70;;;31.30;88.80;;;;;;5074630;28;20051;-67
2023/09/26 11:39:22;;;;;;;8.80;4.90;;;30.50;89.10;;;;;;5074414;28;20381;-67
2023/09/26 11:42:11;;;;;;;8.75;5.38;;;29.70;90.90;;;;;;5074430;28;20046;-67
2023/09/26 11:44:36;;;;;;;8.57;5.35;;;29.10;91.10;;;;;;5073252;28;20345;-67
2023/09/26 11:47:04;;;;;;;8.00;4.57;;;28.80;91.80;;;;;;5064337;28;20035;-67
2023/09/26 11:49:30;;;;;;;9.82;5.00;;;28.60;92.00;;;;;;5073688;28;20032;-67
2023/09/26 11:51:56;;;;;;;10.02;5.13;;;28.50;92.40;;;;;;5073044;28;20454;-67
2023/09/26 11:54:21;;;;;;;10.05;4.30;;;28.60;92.10;;;;;;5053516;28;20075;-67
2023/09/26 11:56:47;;;;;;;7.00;4.68;;;28.60;92.00;;;;;;5053580;28;20537;-67
2023/09/26 11:59:15;;;;;;;11.23;5.20;;;28.30;91.90;;;;;;5054111;28;20040;-66
2023/09/26 12:01:42;;;;;;;7.80;4.60;;;27.90;92.70;;;;;;5057892;28;20086;-66
2023/09/26 12:04:14;;;;;;;10.68;5.05;;;27.50;93.10;;;;;;5073412;28;20031;-67
2023/09/26 12:06:40;;;;;;;11.40;5.25;;;27.20;93.60;;;;;;5073691;28;20392;-67
2023/09/26 12:09:19;;;;;;;10.75;5.22;;;27.00;93.70;;;;;;5073521;28;20056;-67
2023/09/26 12:11:45;;;;;;;10.23;5.03;;;26.60;94.10;;;;;;5073548;28;20410;-67
2023/09/26 12:14:11;;;;;;;7.53;5.10;;;26.40;94.20;;;;;;5073948;28;20103;-67
2023/09/26 12:16:36;;;;;;;11.90;6.03;;;26.40;94.80;;;;;;5073604;28;20222;-67
2023/09/26 12:19:02;;;;;;;12.18;5.25;;;26.60;94.80;;;;;;5073823;28;20486;-67
2023/09/26 12:21:28;;;;;;;8.55;4.97;;;26.70;94.60;;;;;;5073429;28;20558;-67
2023/09/26 12:23:53;;;;;;;10.65;5.90;;;26.70;94.90;;;;;;5073404;28;20124;-67
2023/09/26 12:26:19;;;;;;;13.30;5.97;;;26.90;94.80;;;;;;5073168;28;20120;-66
2023/09/26 12:28:44;;;;;;;12.15;5.40;;;26.90;95.10;;;;;;5073666;28;20035;-66
2023/09/26 12:31:10;;;;;;;9.68;4.82;;;27.10;94.70;;;;;;5073132;28;20476;-67